Kamikawa Maru — JG5687 — position and weather

sailwx.info

Track history (hours):
 
Tides and Currents Weather Stations Pressure Air Temp Water Temp Dewpoint Dewpoint Depression Visibility Wind Speed Wind Dir Waves Ship Positions

Kamikawa Maru

Last reported at 2015-Jun-30 18:25 UTC. Time now 2015-Jul-02 03:41 UTC.
Position N 36°21' E 141°04'.

Length 162 m; draft 6.8 m.

Type: Cargo ship. MMSI: 431101012.

Date/timePositionNaut miles runAvg speedWind from/ knotsBaromVisibWave heightAir tempDewpointWater temp
2015-Jun-30 18:25N 36°21' E 141°04'1719.2
2015-Jun-30 17:33N 36°05' E 141°01'1919.1
2015-Jun-30 16:32N 35°45' E 140°56'1919.4
2015-Jun-30 15:33N 35°28' E 140°47'2020.1
2015-Jun-30 14:33N 35°11' E 140°33'1919.2
2015-Jun-30 13:33N 34°60' E 140°14'2019.5
2015-Jun-30 12:32N 34°51' E 139°53'1615.9
2015-Jun-30 11:33N 35°05' E 139°44'1414.1
2015-Jun-30 10:33N 35°19' E 139°43'1515.2
2015-Jun-30 09:33N 35°33' E 139°50'6 5.8
2015-Jun-30 08:33N 35°38' E 139°46'0 0.0
2015-Jun-30 07:33N 35°38' E 139°46'0 0.0
2015-Jun-30 06:30N 35°38' E 139°46'0 0.0
2015-Jun-30 05:30N 35°38' E 139°46'0 0.0
2015-Jun-30 04:30N 35°38' E 139°46'0 0.0
2015-Jun-30 03:30N 35°38' E 139°46'0 0.0
2015-Jun-30 02:33N 35°38' E 139°46'0 0.0
2015-Jun-30 01:33N 35°38' E 139°46'0 0.0
2015-Jun-30 00:33N 35°38' E 139°46'0 0.1
2015-Jun-29 23:33N 35°38' E 139°46'1111.0
2015-Jun-29 22:34N 35°28' E 139°50'1211.8
2015-Jun-29 21:33N 35°16' E 139°46'1414.0
2015-Jun-29 20:33N 35°03' E 139°41'1818.2
2015-Jun-29 19:33N 34°51' E 139°25'3 0.1
2015-Jun-28 06:23N 34°53' E 139°23'1619.7
2015-Jun-28 05:33N 35°03' E 139°38'1514.7
2015-Jun-28 04:33N 35°17' E 139°45'1414.3
2015-Jun-28 03:34N 35°30' E 139°51'9 9.0
2015-Jun-28 02:34N 35°38' E 139°46'0 0.0
2015-Jun-28 01:20N 35°38' E 139°46'0 0.1
2015-Jun-28 00:32N 35°38' E 139°46'0 0.1
2015-Jun-27 23:34N 35°38' E 139°46'1111.1
2015-Jun-27 22:33N 35°27' E 139°50'1211.9
2015-Jun-27 21:33N 35°16' E 139°46'1414.2
2015-Jun-27 20:33N 35°02' E 139°43'1412.9
2015-Jun-27 19:27N 34°53' E 139°56'1617.3
2015-Jun-27 18:33N 35°01' E 140°13'1916.9
2015-Jun-27 17:25N 35°09' E 140°34'2015.2
2015-Jun-27 16:06N 35°22' E 140°52'1316.5
2015-Jun-27 15:17N 35°35' E 140°57'  
2015-Jun-23 18:54N 36°32' E 141°06'84 3.6
2015-Jun-22 19:21N 35°32' E 139°54'1 0.7
2015-Jun-22 18:33N 35°32' E 139°53'1515.0
2015-Jun-22 17:33N 35°19' E 139°44'1414.4
2015-Jun-22 16:33N 35°05' E 139°44'2020.1
2015-Jun-22 15:33N 34°52' E 139°25'4718.9
2015-Jun-22 13:03N 34°30' E 138°34'27 1.1
2015-Jun-21 11:13N 34°38' E 139°06'1420.6
2015-Jun-21 10:34N 34°48' E 139°17'2020.0
2015-Jun-21 09:33N 35°02' E 139°36'1616.6
2015-Jun-21 08:34N 35°16' E 139°46'1212.5
2015-Jun-21 07:34N 35°28' E 139°49'1010.4
2015-Jun-21 06:33N 35°38' E 139°46'0 0.0
2015-Jun-21 05:28N 35°38' E 139°46'0 0.1
2015-Jun-21 04:31N 35°38' E 139°46'0 0.0
2015-Jun-21 03:31N 35°38' E 139°46'0 0.0
2015-Jun-21 02:31N 35°38' E 139°46'0 0.0
2015-Jun-21 01:28N 35°38' E 139°46'0 0.1
2015-Jun-21 00:31N 35°38' E 139°46'0 0.1
2015-Jun-20 23:33N 35°38' E 139°46'1111.4
2015-Jun-20 22:33N 35°27' E 139°50'1111.5
2015-Jun-20 21:33N 35°16' E 139°47'1515.2
2015-Jun-20 20:33N 35°01' E 139°43'1413.0
2015-Jun-20 19:28N 34°52' E 139°56'1617.5
2015-Jun-20 18:33N 35°00' E 140°13'  
Track history (hours):
 
Tides and Currents Weather Stations Pressure Air Temp Water Temp Dewpoint Dewpoint Depression Visibility Wind Speed Wind Dir Waves Ship Positions

Kamikawa Maru

Last reported at 2015-Jun-30 18:25 UTC. Time now 2015-Jul-02 03:41 UTC.
Position N 36°21' E 141°04'.

Length 162 m; draft 6.8 m.

Type: Cargo ship. MMSI: 431101012.

Date/timePositionNaut miles runAvg speedWind from/ knotsBaromVisibWave heightAir tempDewpointWater temp
2015-Jun-30 18:25N 36°21' E 141°04'1719.2
2015-Jun-30 17:33N 36°05' E 141°01'1919.1
2015-Jun-30 16:32N 35°45' E 140°56'1919.4
2015-Jun-30 15:33N 35°28' E 140°47'2020.1
2015-Jun-30 14:33N 35°11' E 140°33'1919.2
2015-Jun-30 13:33N 34°60' E 140°14'2019.5
2015-Jun-30 12:32N 34°51' E 139°53'1615.9
2015-Jun-30 11:33N 35°05' E 139°44'1414.1
2015-Jun-30 10:33N 35°19' E 139°43'1515.2
2015-Jun-30 09:33N 35°33' E 139°50'6 5.8
2015-Jun-30 08:33N 35°38' E 139°46'0 0.0
2015-Jun-30 07:33N 35°38' E 139°46'0 0.0
2015-Jun-30 06:30N 35°38' E 139°46'0 0.0
2015-Jun-30 05:30N 35°38' E 139°46'0 0.0
2015-Jun-30 04:30N 35°38' E 139°46'0 0.0
2015-Jun-30 03:30N 35°38' E 139°46'0 0.0
2015-Jun-30 02:33N 35°38' E 139°46'0 0.0
2015-Jun-30 01:33N 35°38' E 139°46'0 0.0
2015-Jun-30 00:33N 35°38' E 139°46'0 0.1
2015-Jun-29 23:33N 35°38' E 139°46'1111.0
2015-Jun-29 22:34N 35°28' E 139°50'1211.8
2015-Jun-29 21:33N 35°16' E 139°46'1414.0
2015-Jun-29 20:33N 35°03' E 139°41'1818.2
2015-Jun-29 19:33N 34°51' E 139°25'3 0.1
2015-Jun-28 06:23N 34°53' E 139°23'1619.7
2015-Jun-28 05:33N 35°03' E 139°38'1514.7
2015-Jun-28 04:33N 35°17' E 139°45'1414.3
2015-Jun-28 03:34N 35°30' E 139°51'9 9.0
2015-Jun-28 02:34N 35°38' E 139°46'0 0.0
2015-Jun-28 01:20N 35°38' E 139°46'0 0.1
2015-Jun-28 00:32N 35°38' E 139°46'0 0.1
2015-Jun-27 23:34N 35°38' E 139°46'1111.1
2015-Jun-27 22:33N 35°27' E 139°50'1211.9
2015-Jun-27 21:33N 35°16' E 139°46'1414.2
2015-Jun-27 20:33N 35°02' E 139°43'1412.9
2015-Jun-27 19:27N 34°53' E 139°56'1617.3
2015-Jun-27 18:33N 35°01' E 140°13'1916.9
2015-Jun-27 17:25N 35°09' E 140°34'2015.2
2015-Jun-27 16:06N 35°22' E 140°52'1316.5
2015-Jun-27 15:17N 35°35' E 140°57'  
2015-Jun-23 18:54N 36°32' E 141°06'84 3.6
2015-Jun-22 19:21N 35°32' E 139°54'1 0.7
2015-Jun-22 18:33N 35°32' E 139°53'1515.0
2015-Jun-22 17:33N 35°19' E 139°44'1414.4
2015-Jun-22 16:33N 35°05' E 139°44'2020.1
2015-Jun-22 15:33N 34°52' E 139°25'4718.9
2015-Jun-22 13:03N 34°30' E 138°34'27 1.1
2015-Jun-21 11:13N 34°38' E 139°06'1420.6
2015-Jun-21 10:34N 34°48' E 139°17'2020.0
2015-Jun-21 09:33N 35°02' E 139°36'1616.6
2015-Jun-21 08:34N 35°16' E 139°46'1212.5
2015-Jun-21 07:34N 35°28' E 139°49'1010.4
2015-Jun-21 06:33N 35°38' E 139°46'0 0.0
2015-Jun-21 05:28N 35°38' E 139°46'0 0.1
2015-Jun-21 04:31N 35°38' E 139°46'0 0.0
2015-Jun-21 03:31N 35°38' E 139°46'0 0.0
2015-Jun-21 02:31N 35°38' E 139°46'0 0.0
2015-Jun-21 01:28N 35°38' E 139°46'0 0.1
2015-Jun-21 00:31N 35°38' E 139°46'0 0.1
2015-Jun-20 23:33N 35°38' E 139°46'1111.4
2015-Jun-20 22:33N 35°27' E 139°50'1111.5
2015-Jun-20 21:33N 35°16' E 139°47'1515.2
2015-Jun-20 20:33N 35°01' E 139°43'1413.0
2015-Jun-20 19:28N 34°52' E 139°56'1617.5
2015-Jun-20 18:33N 35°00' E 140°13'  

Dump ship's entire track history